PWSweather.com
Personal Weather Stations
Station Observations
STWO1
East Side, Stillwater, OK 74075

East SideStillwater, OK 74075

Lat: 36.1242949, Lon: -97.044042

Elevation: 942

Station Type: Davis VP2

http://stillwaterweather.com

High Low Average
Temperature 83.9°F28.8°F 64.5°F18.1°F 73.4°F23.0°F
Dew Point 66.2°F19.0°F 49.2°F9.6°F 59.7°F15.4°F
Winds 9.2 mph N14.8 mph N Calm Calm 2.4 mph 3.9 mph
Wind Gusts 17.3 mph27.8 mph -- 4.6 mph7.4 mph
Humidity 91% 31% 66%
Pressure 30.00 in1015.90 in 29.77 in1008.10 in -
Precipitation 0.01 in0.30 in - -
Hour Temp Dew Point Humidity Winds Wind Gusts Pressure Precip Precip Rate Daily Precip Total
12:00 AM 74.9°F23.8°C 66.0°F18.9°C 74% 2.3 mph N3.7 kmh N 13.8 mph22.2 kmh 29.79 in1008.8 mb - 0.00 in0.0 mm 0.00 in0.0 mm
12:10 AM 74.6°F23.7°C 66.2°F19.0°C 75% 1.2 mph N1.9 kmh N 8.1 mph13.0 kmh 29.80 in1009.1 mb - 0.00 in0.0 mm 0.00 in0.0 mm
12:20 AM 74.4°F23.6°C 66.0°F18.9°C 75% Calm Calm 3.5 mph5.6 kmh 29.81 in1009.5 mb - 0.00 in0.0 mm 0.00 in0.0 mm
12:30 AM 74.0°F23.3°C 65.6°F18.7°C 75% Calm Calm 3.5 mph5.6 kmh 29.82 in1009.8 mb - 0.00 in0.0 mm 0.00 in0.0 mm
12:40 AM 73.8°F23.2°C 65.8°F18.8°C 76% 3.5 mph N5.6 kmh N 5.8 mph9.3 kmh 29.85 in1010.8 mb - 0.00 in0.0 mm 0.00 in0.0 mm
12:50 AM 73.8°F23.2°C 65.8°F18.8°C 76% 4.6 mph N7.4 kmh N 5.8 mph9.3 kmh 29.86 in1011.2 mb - 0.00 in0.0 mm 0.00 in0.0 mm
01:00 AM 73.7°F23.2°C 65.7°F18.7°C 76% 3.5 mph NNW5.6 kmh NNW 4.6 mph7.4 kmh 29.88 in1011.9 mb - 0.00 in0.0 mm 0.00 in0.0 mm
01:10 AM 73.7°F23.2°C 65.7°F18.7°C 76% 3.5 mph NNW5.6 kmh NNW 4.6 mph7.4 kmh 29.87 in1011.5 mb - 0.00 in0.0 mm 0.00 in0.0 mm
01:20 AM 73.3°F22.9°C 65.7°F18.7°C 77% 8.1 mph N13.0 kmh N 13.8 mph22.2 kmh 29.89 in1012.2 mb - 0.00 in0.0 mm 0.00 in0.0 mm
01:30 AM 72.6°F22.6°C 65.7°F18.7°C 79% 4.6 mph NNW7.4 kmh NNW 4.6 mph7.4 kmh 29.86 in1011.2 mb - 0.01 in0.3 mm 0.01 in0.3 mm
01:40 AM 70.9°F21.6°C 65.2°F18.4°C 82% 9.2 mph N14.8 kmh N 12.7 mph20.4 kmh 29.84 in1010.5 mb - 0.00 in0.0 mm 0.01 in0.3 mm
01:50 AM 70.1°F21.2°C 65.0°F18.3°C 84% 4.6 mph N7.4 kmh N 17.3 mph27.8 kmh 29.80 in1009.1 mb - 0.00 in0.0 mm 0.01 in0.3 mm
02:00 AM 69.4°F20.8°C 64.7°F18.2°C 85% 4.6 mph NE7.4 kmh NE 11.5 mph18.5 kmh 29.78 in1008.5 mb - 0.00 in0.0 mm 0.01 in0.3 mm
02:10 AM 68.9°F20.5°C 64.5°F18.1°C 86% 2.3 mph NE3.7 kmh NE 3.5 mph5.6 kmh 29.77 in1008.1 mb - 0.00 in0.0 mm 0.01 in0.3 mm
02:20 AM 68.6°F20.3°C 64.6°F18.1°C 87% 1.2 mph N1.9 kmh N 1.2 mph1.9 kmh 29.79 in1008.8 mb - 0.00 in0.0 mm 0.01 in0.3 mm
02:30 AM 68.3°F20.2°C 64.3°F17.9°C 87% 1.2 mph N1.9 kmh N 3.5 mph5.6 kmh 29.79 in1008.8 mb - 0.00 in0.0 mm 0.01 in0.3 mm
02:40 AM 68.1°F20.1°C 64.4°F18.0°C 88% 2.3 mph NNW3.7 kmh NNW 8.1 mph13.0 kmh 29.79 in1008.8 mb - 0.00 in0.0 mm 0.01 in0.3 mm
02:50 AM 67.9°F19.9°C 64.3°F17.9°C 88% 2.3 mph N3.7 kmh N 5.8 mph9.3 kmh 29.79 in1008.8 mb - 0.00 in0.0 mm 0.01 in0.3 mm
03:00 AM 67.8°F19.9°C 64.1°F17.8°C 88% Calm Calm -- 29.80 in1009.1 mb - 0.00 in0.0 mm 0.01 in0.3 mm
03:10 AM 67.7°F19.8°C 64.0°F17.8°C 88% 1.2 mph N1.9 kmh N 3.5 mph5.6 kmh 29.81 in1009.5 mb - 0.00 in0.0 mm 0.01 in0.3 mm
03:20 AM 67.6°F19.8°C 64.2°F17.9°C 89% Calm Calm -- 29.81 in1009.5 mb - 0.00 in0.0 mm 0.01 in0.3 mm
03:30 AM 67.4°F19.7°C 64.0°F17.8°C 89% Calm Calm -- 29.81 in1009.5 mb - 0.00 in0.0 mm 0.01 in0.3 mm
03:40 AM 67.4°F19.7°C 64.0°F17.8°C 89% Calm Calm -- 29.80 in1009.1 mb - 0.00 in0.0 mm 0.01 in0.3 mm
03:50 AM 67.2°F19.6°C 63.8°F17.7°C 89% Calm Calm -- 29.79 in1008.8 mb - 0.00 in0.0 mm 0.01 in0.3 mm
04:00 AM 67.0°F19.4°C 63.6°F17.6°C 89% 1.2 mph N1.9 kmh N 2.3 mph3.7 kmh 29.79 in1008.8 mb - 0.00 in0.0 mm 0.01 in0.3 mm
04:10 AM 66.8°F19.3°C 63.5°F17.5°C 89% 2.3 mph N3.7 kmh N 3.5 mph5.6 kmh 29.80 in1009.1 mb - 0.00 in0.0 mm 0.01 in0.3 mm
04:20 AM 66.6°F19.2°C 63.3°F17.4°C 89% Calm Calm -- 29.80 in1009.1 mb - 0.00 in0.0 mm 0.01 in0.3 mm
04:30 AM 66.4°F19.1°C 63.4°F17.4°C 90% Calm Calm 2.3 mph3.7 kmh 29.82 in1009.8 mb - 0.00 in0.0 mm 0.01 in0.3 mm
04:40 AM 66.3°F19.1°C 63.3°F17.4°C 90% 1.2 mph N1.9 kmh N 1.2 mph1.9 kmh 29.83 in1010.2 mb - 0.00 in0.0 mm 0.01 in0.3 mm
04:50 AM 66.0°F18.9°C 63.0°F17.2°C 90% Calm Calm -- 29.84 in1010.5 mb - 0.00 in0.0 mm 0.01 in0.3 mm
05:00 AM 65.8°F18.8°C 62.8°F17.1°C 90% 1.2 mph N1.9 kmh N 2.3 mph3.7 kmh 29.85 in1010.8 mb - 0.00 in0.0 mm 0.01 in0.3 mm
05:10 AM 65.6°F18.7°C 62.6°F17.0°C 90% 1.2 mph N1.9 kmh N 4.6 mph7.4 kmh 29.86 in1011.2 mb - 0.00 in0.0 mm 0.01 in0.3 mm
05:20 AM 65.6°F18.7°C 62.6°F17.0°C 90% 2.3 mph N3.7 kmh N 3.5 mph5.6 kmh 29.86 in1011.2 mb - 0.00 in0.0 mm 0.01 in0.3 mm
05:30 AM 65.6°F18.7°C 62.6°F17.0°C 90% Calm Calm 1.2 mph1.9 kmh 29.86 in1011.2 mb - 0.00 in0.0 mm 0.01 in0.3 mm
05:40 AM 65.5°F18.6°C 62.5°F16.9°C 90% 1.2 mph N1.9 kmh N 1.2 mph1.9 kmh 29.86 in1011.2 mb - 0.00 in0.0 mm 0.01 in0.3 mm
05:50 AM 65.3°F18.5°C 62.3°F16.8°C 90% 2.3 mph N3.7 kmh N 3.5 mph5.6 kmh 29.86 in1011.2 mb - 0.00 in0.0 mm 0.01 in0.3 mm
06:00 AM 65.2°F18.4°C 62.2°F16.8°C 90% 1.2 mph N1.9 kmh N 3.5 mph5.6 kmh 29.87 in1011.5 mb - 0.00 in0.0 mm 0.01 in0.3 mm
06:10 AM 65.1°F18.4°C 62.1°F16.7°C 90% Calm Calm -- 29.86 in1011.2 mb - 0.00 in0.0 mm 0.01 in0.3 mm
06:20 AM 64.9°F18.3°C 61.9°F16.6°C 90% Calm Calm -- 29.86 in1011.2 mb - 0.00 in0.0 mm 0.01 in0.3 mm
06:30 AM 64.7°F18.2°C 61.7°F16.5°C 90% Calm Calm -- 29.86 in1011.2 mb - 0.00 in0.0 mm 0.01 in0.3 mm
06:40 AM 64.5°F18.1°C 61.5°F16.4°C 90% 1.2 mph N1.9 kmh N 3.5 mph5.6 kmh 29.87 in1011.5 mb - 0.00 in0.0 mm 0.01 in0.3 mm
06:50 AM 64.5°F18.1°C 61.5°F16.4°C 90% Calm Calm -- 29.88 in1011.9 mb - 0.00 in0.0 mm 0.01 in0.3 mm
07:00 AM 64.7°F18.2°C 62.0°F16.7°C 91% 1.2 mph N1.9 kmh N 1.2 mph1.9 kmh 29.89 in1012.2 mb - 0.00 in0.0 mm 0.01 in0.3 mm
07:10 AM 64.8°F18.2°C 62.1°F16.7°C 91% 1.2 mph N1.9 kmh N 3.5 mph5.6 kmh 29.89 in1012.2 mb - 0.00 in0.0 mm 0.01 in0.3 mm
07:20 AM 64.8°F18.2°C 62.1°F16.7°C 91% 2.3 mph N3.7 kmh N 3.5 mph5.6 kmh 29.90 in1012.5 mb - 0.00 in0.0 mm 0.01 in0.3 mm
07:30 AM 65.0°F18.3°C 62.3°F16.8°C 91% 6.9 mph NNW11.1 kmh NNW 9.2 mph14.8 kmh 29.91 in1012.9 mb - 0.00 in0.0 mm 0.01 in0.3 mm
07:40 AM 65.4°F18.6°C 62.7°F17.1°C 91% 3.5 mph NNW5.6 kmh NNW 10.4 mph16.7 kmh 29.91 in1012.9 mb - 0.00 in0.0 mm 0.01 in0.3 mm
07:50 AM 65.7°F18.7°C 62.7°F17.1°C 90% 4.6 mph NW7.4 kmh NW 9.2 mph14.8 kmh 29.91 in1012.9 mb - 0.00 in0.0 mm 0.01 in0.3 mm
08:00 AM 66.0°F18.9°C 62.7°F17.1°C 89% 5.8 mph N9.3 kmh N 10.4 mph16.7 kmh 29.91 in1012.9 mb - 0.00 in0.0 mm 0.01 in0.3 mm
08:10 AM 66.5°F19.2°C 62.8°F17.1°C 88% 5.8 mph N9.3 kmh N 10.4 mph16.7 kmh 29.92 in1013.2 mb - 0.00 in0.0 mm 0.01 in0.3 mm
08:20 AM 66.9°F19.4°C 62.9°F17.2°C 87% 5.8 mph NW9.3 kmh NW 8.1 mph13.0 kmh 29.93 in1013.5 mb - 0.00 in0.0 mm 0.01 in0.3 mm
08:30 AM 67.4°F19.7°C 63.1°F17.3°C 86% 4.6 mph NNW7.4 kmh NNW 3.5 mph5.6 kmh 29.94 in1013.9 mb - 0.00 in0.0 mm 0.01 in0.3 mm
08:40 AM 67.8°F19.9°C 63.1°F17.3°C 85% 3.5 mph NNW5.6 kmh NNW 5.8 mph9.3 kmh 29.95 in1014.2 mb - 0.00 in0.0 mm 0.01 in0.3 mm
08:50 AM 68.4°F20.2°C 63.3°F17.4°C 84% 3.5 mph N5.6 kmh N 3.5 mph5.6 kmh 29.95 in1014.2 mb - 0.00 in0.0 mm 0.01 in0.3 mm
09:00 AM 68.6°F20.3°C 62.9°F17.2°C 82% 4.6 mph N7.4 kmh N 5.8 mph9.3 kmh 29.96 in1014.6 mb - 0.00 in0.0 mm 0.01 in0.3 mm
09:10 AM 69.0°F20.6°C 63.3°F17.4°C 82% 6.9 mph N11.1 kmh N 9.2 mph14.8 kmh 29.96 in1014.6 mb - 0.00 in0.0 mm 0.01 in0.3 mm
09:20 AM 69.4°F20.8°C 62.6°F17.0°C 79% 4.6 mph NNW7.4 kmh NNW 9.2 mph14.8 kmh 29.96 in1014.6 mb - 0.00 in0.0 mm 0.01 in0.3 mm
09:30 AM 70.1°F21.2°C 62.9°F17.2°C 78% 6.9 mph N11.1 kmh N 10.4 mph16.7 kmh 29.97 in1014.9 mb - 0.00 in0.0 mm 0.01 in0.3 mm
09:40 AM 70.5°F21.4°C 62.9°F17.2°C 77% 4.6 mph NNW7.4 kmh NNW 5.8 mph9.3 kmh 29.97 in1014.9 mb - 0.00 in0.0 mm 0.01 in0.3 mm
09:50 AM 71.0°F21.7°C 62.7°F17.1°C 75% 4.6 mph N7.4 kmh N 5.8 mph9.3 kmh 29.97 in1014.9 mb - 0.00 in0.0 mm 0.01 in0.3 mm
10:00 AM 71.8°F22.1°C 63.1°F17.3°C 74% 4.6 mph NNW7.4 kmh NNW 9.2 mph14.8 kmh 29.98 in1015.2 mb - 0.00 in0.0 mm 0.01 in0.3 mm
10:10 AM 72.4°F22.4°C 63.3°F17.4°C 73% 2.3 mph N3.7 kmh N 5.8 mph9.3 kmh 29.98 in1015.2 mb - 0.00 in0.0 mm 0.01 in0.3 mm
10:20 AM 72.8°F22.7°C 62.1°F16.7°C 69% 4.6 mph NNW7.4 kmh NNW 8.1 mph13.0 kmh 29.98 in1015.2 mb - 0.00 in0.0 mm 0.01 in0.3 mm
10:30 AM 73.1°F22.8°C 61.9°F16.6°C 68% 3.5 mph NNW5.6 kmh NNW 8.1 mph13.0 kmh 29.98 in1015.2 mb - 0.00 in0.0 mm 0.01 in0.3 mm
10:40 AM 73.8°F23.2°C 62.6°F17.0°C 68% 1.2 mph N1.9 kmh N 3.5 mph5.6 kmh 29.98 in1015.2 mb - 0.00 in0.0 mm 0.01 in0.3 mm
10:50 AM 74.6°F23.7°C 62.9°F17.2°C 67% 1.2 mph N1.9 kmh N 3.5 mph5.6 kmh 29.99 in1015.6 mb - 0.00 in0.0 mm 0.01 in0.3 mm
11:00 AM 74.7°F23.7°C 61.3°F16.3°C 63% 8.1 mph N13.0 kmh N 9.2 mph14.8 kmh 29.98 in1015.2 mb - 0.00 in0.0 mm 0.01 in0.3 mm
11:10 AM 74.8°F23.8°C 62.2°F16.8°C 65% 4.6 mph NW7.4 kmh NW 8.1 mph13.0 kmh 29.99 in1015.6 mb - 0.00 in0.0 mm 0.01 in0.3 mm
11:20 AM 75.2°F24.0°C 61.7°F16.5°C 63% 4.6 mph NW7.4 kmh NW 9.2 mph14.8 kmh 29.99 in1015.6 mb - 0.00 in0.0 mm 0.01 in0.3 mm
11:30 AM 75.5°F24.2°C 62.5°F16.9°C 64% 2.3 mph NNW3.7 kmh NNW 3.5 mph5.6 kmh 29.99 in1015.6 mb - 0.00 in0.0 mm 0.01 in0.3 mm
11:40 AM 75.9°F24.4°C 62.0°F16.7°C 62% 2.3 mph N3.7 kmh N 4.6 mph7.4 kmh 30.00 in1015.9 mb - 0.00 in0.0 mm 0.01 in0.3 mm
11:50 AM 76.6°F24.8°C 60.7°F15.9°C 58% 4.6 mph N7.4 kmh N 5.8 mph9.3 kmh 29.99 in1015.6 mb - 0.00 in0.0 mm 0.01 in0.3 mm
12:00 PM 77.3°F25.2°C 61.4°F16.3°C 58% 4.6 mph N7.4 kmh N 9.2 mph14.8 kmh 29.99 in1015.6 mb - 0.00 in0.0 mm 0.01 in0.3 mm
12:10 PM 77.7°F25.4°C 58.1°F14.5°C 51% 4.6 mph N7.4 kmh N 5.8 mph9.3 kmh 29.99 in1015.6 mb - 0.00 in0.0 mm 0.01 in0.3 mm
12:20 PM 78.4°F25.8°C 60.9°F16.1°C 55% 2.3 mph NE3.7 kmh NE 4.6 mph7.4 kmh 29.99 in1015.6 mb - 0.00 in0.0 mm 0.01 in0.3 mm
12:30 PM 77.4°F25.2°C 60.0°F15.6°C 55% Calm Calm -- 30.00 in1015.9 mb - 0.00 in0.0 mm 0.01 in0.3 mm
12:40 PM 77.1°F25.1°C 59.7°F15.4°C 55% 4.6 mph NNW7.4 kmh NNW 4.6 mph7.4 kmh 30.00 in1015.9 mb - 0.00 in0.0 mm 0.01 in0.3 mm
12:50 PM 78.4°F25.8°C 61.4°F16.3°C 56% 5.8 mph NW9.3 kmh NW 11.5 mph18.5 kmh 29.99 in1015.6 mb - 0.00 in0.0 mm 0.01 in0.3 mm
01:00 PM 78.1°F25.6°C 61.1°F16.2°C 56% 3.5 mph N5.6 kmh N 8.1 mph13.0 kmh 29.99 in1015.6 mb - 0.00 in0.0 mm 0.01 in0.3 mm
01:10 PM 79.0°F26.1°C 63.0°F17.2°C 58% 1.2 mph WNW1.9 kmh WNW 1.2 mph1.9 kmh 29.99 in1015.6 mb - 0.00 in0.0 mm 0.01 in0.3 mm
01:20 PM 79.4°F26.3°C 62.8°F17.1°C 57% Calm Calm 3.5 mph5.6 kmh 29.99 in1015.6 mb - 0.00 in0.0 mm 0.01 in0.3 mm
01:30 PM 79.6°F26.4°C 61.5°F16.4°C 54% 4.6 mph N7.4 kmh N 8.1 mph13.0 kmh 29.99 in1015.6 mb - 0.00 in0.0 mm 0.01 in0.3 mm
01:40 PM 79.9°F26.6°C 61.8°F16.6°C 54% 1.2 mph NNW1.9 kmh NNW 4.6 mph7.4 kmh 29.99 in1015.6 mb - 0.00 in0.0 mm 0.01 in0.3 mm
01:50 PM 78.7°F25.9°C 61.7°F16.5°C 56% 2.3 mph WNW3.7 kmh WNW 4.6 mph7.4 kmh 29.98 in1015.2 mb - 0.00 in0.0 mm 0.01 in0.3 mm
02:00 PM 80.8°F27.1°C 62.6°F17.0°C 54% 2.3 mph WSW3.7 kmh WSW 2.3 mph3.7 kmh 29.98 in1015.2 mb - 0.00 in0.0 mm 0.01 in0.3 mm
02:10 PM 80.7°F27.1°C 61.4°F16.3°C 52% 5.8 mph N9.3 kmh N 4.6 mph7.4 kmh 29.98 in1015.2 mb - 0.00 in0.0 mm 0.01 in0.3 mm
02:20 PM 80.7°F27.1°C 60.9°F16.1°C 51% 5.8 mph N9.3 kmh N 9.2 mph14.8 kmh 29.97 in1014.9 mb - 0.00 in0.0 mm 0.01 in0.3 mm
02:30 PM 80.4°F26.9°C 59.5°F15.3°C 49% 6.9 mph NW11.1 kmh NW 9.2 mph14.8 kmh 29.97 in1014.9 mb - 0.00 in0.0 mm 0.01 in0.3 mm
02:40 PM 80.7°F27.1°C 59.8°F15.4°C 49% 9.2 mph N14.8 kmh N 11.5 mph18.5 kmh 29.96 in1014.6 mb - 0.00 in0.0 mm 0.01 in0.3 mm
02:50 PM 80.3°F26.8°C 60.0°F15.6°C 50% 3.5 mph NNW5.6 kmh NNW 5.8 mph9.3 kmh 29.96 in1014.6 mb - 0.00 in0.0 mm 0.01 in0.3 mm
03:00 PM 81.3°F27.4°C 60.3°F15.7°C 49% 1.2 mph N1.9 kmh N 10.4 mph16.7 kmh 29.96 in1014.6 mb - 0.00 in0.0 mm 0.01 in0.3 mm
03:10 PM 81.0°F27.2°C 58.3°F14.6°C 46% 4.6 mph N7.4 kmh N 10.4 mph16.7 kmh 29.96 in1014.6 mb - 0.00 in0.0 mm 0.01 in0.3 mm
03:20 PM 81.8°F27.7°C 58.4°F14.7°C 45% 5.8 mph NNW9.3 kmh NNW 11.5 mph18.5 kmh 29.96 in1014.6 mb - 0.00 in0.0 mm 0.01 in0.3 mm
03:30 PM 82.2°F27.9°C 58.1°F14.5°C 44% 2.3 mph N3.7 kmh N 3.5 mph5.6 kmh 29.96 in1014.6 mb - 0.00 in0.0 mm 0.01 in0.3 mm
03:40 PM 82.9°F28.3°C 56.8°F13.8°C 41% 4.6 mph NNW7.4 kmh NNW 9.2 mph14.8 kmh 29.96 in1014.6 mb - 0.00 in0.0 mm 0.01 in0.3 mm
03:50 PM 83.7°F28.7°C 58.8°F14.9°C 43% 2.3 mph NW3.7 kmh NW 11.5 mph18.5 kmh 29.95 in1014.2 mb - 0.00 in0.0 mm 0.01 in0.3 mm
04:00 PM 82.3°F27.9°C 54.2°F12.3°C 38% 5.8 mph N9.3 kmh N 9.2 mph14.8 kmh 29.95 in1014.2 mb - 0.00 in0.0 mm 0.01 in0.3 mm
04:10 PM 82.8°F28.2°C 56.0°F13.3°C 40% 4.6 mph NW7.4 kmh NW 5.8 mph9.3 kmh 29.95 in1014.2 mb - 0.00 in0.0 mm 0.01 in0.3 mm
04:20 PM 83.6°F28.7°C 56.7°F13.7°C 40% 1.2 mph NNW1.9 kmh NNW 4.6 mph7.4 kmh 29.95 in1014.2 mb - 0.00 in0.0 mm 0.01 in0.3 mm
04:30 PM 83.2°F28.4°C 55.0°F12.8°C 38% 3.5 mph N5.6 kmh N 4.6 mph7.4 kmh 29.95 in1014.2 mb - 0.00 in0.0 mm 0.01 in0.3 mm
04:40 PM 83.1°F28.4°C 52.6°F11.4°C 35% 6.9 mph NNW11.1 kmh NNW 9.2 mph14.8 kmh 29.95 in1014.2 mb - 0.00 in0.0 mm 0.01 in0.3 mm
04:50 PM 83.2°F28.4°C 55.0°F12.8°C 38% 3.5 mph NW5.6 kmh NW 10.4 mph16.7 kmh 29.95 in1014.2 mb - 0.00 in0.0 mm 0.01 in0.3 mm
05:00 PM 83.3°F28.5°C 54.3°F12.4°C 37% 3.5 mph NW5.6 kmh NW 5.8 mph9.3 kmh 29.94 in1013.9 mb - 0.00 in0.0 mm 0.01 in0.3 mm
05:10 PM 83.9°F28.8°C 54.1°F12.3°C 36% 2.3 mph N3.7 kmh N 5.8 mph9.3 kmh 29.94 in1013.9 mb - 0.00 in0.0 mm 0.01 in0.3 mm
05:20 PM 83.6°F28.7°C 51.5°F10.8°C 33% 4.6 mph NNW7.4 kmh NNW 9.2 mph14.8 kmh 29.94 in1013.9 mb - 0.00 in0.0 mm 0.01 in0.3 mm
05:30 PM 83.6°F28.7°C 50.6°F10.3°C 32% 5.8 mph NNW9.3 kmh NNW 10.4 mph16.7 kmh 29.94 in1013.9 mb - 0.00 in0.0 mm 0.01 in0.3 mm
05:40 PM 83.7°F28.7°C 52.3°F11.3°C 34% 2.3 mph NNW3.7 kmh NNW 3.5 mph5.6 kmh 29.94 in1013.9 mb - 0.00 in0.0 mm 0.01 in0.3 mm
05:50 PM 83.8°F28.8°C 50.8°F10.4°C 32% 5.8 mph N9.3 kmh N 9.2 mph14.8 kmh 29.94 in1013.9 mb - 0.00 in0.0 mm 0.01 in0.3 mm
06:00 PM 83.6°F28.7°C 51.5°F10.8°C 33% 1.2 mph NNW1.9 kmh NNW 3.5 mph5.6 kmh 29.93 in1013.5 mb - 0.00 in0.0 mm 0.01 in0.3 mm
06:10 PM 83.6°F28.7°C 50.6°F10.3°C 32% 1.2 mph N1.9 kmh N 3.5 mph5.6 kmh 29.93 in1013.5 mb - 0.00 in0.0 mm 0.01 in0.3 mm
06:20 PM 83.6°F28.7°C 49.7°F9.8°C 31% Calm Calm 4.6 mph7.4 kmh 29.93 in1013.5 mb - 0.00 in0.0 mm 0.01 in0.3 mm
06:30 PM 83.6°F28.7°C 50.6°F10.3°C 32% 2.3 mph NNW3.7 kmh NNW 3.5 mph5.6 kmh 29.92 in1013.2 mb - 0.00 in0.0 mm 0.01 in0.3 mm
06:40 PM 83.4°F28.6°C 51.3°F10.7°C 33% 1.2 mph NNW1.9 kmh NNW 3.5 mph5.6 kmh 29.92 in1013.2 mb - 0.00 in0.0 mm 0.01 in0.3 mm
06:50 PM 83.1°F28.4°C 50.2°F10.1°C 32% 1.2 mph NE1.9 kmh NE 2.3 mph3.7 kmh 29.91 in1012.9 mb - 0.00 in0.0 mm 0.01 in0.3 mm
07:00 PM 83.1°F28.4°C 49.3°F9.6°C 31% 2.3 mph NE3.7 kmh NE 3.5 mph5.6 kmh 29.91 in1012.9 mb - 0.00 in0.0 mm 0.01 in0.3 mm
07:10 PM 82.9°F28.3°C 49.2°F9.6°C 31% 1.2 mph NE1.9 kmh NE 3.5 mph5.6 kmh 29.91 in1012.9 mb - 0.00 in0.0 mm 0.01 in0.3 mm
07:20 PM 82.0°F27.8°C 50.1°F10.1°C 33% 1.2 mph NE1.9 kmh NE 1.2 mph1.9 kmh 29.91 in1012.9 mb - 0.00 in0.0 mm 0.01 in0.3 mm
07:30 PM 81.3°F27.4°C 50.2°F10.1°C 34% 1.2 mph NE1.9 kmh NE 3.5 mph5.6 kmh 29.91 in1012.9 mb - 0.00 in0.0 mm 0.01 in0.3 mm
07:40 PM 80.7°F27.1°C 50.5°F10.3°C 35% Calm Calm -- 29.91 in1012.9 mb - 0.00 in0.0 mm 0.01 in0.3 mm
07:50 PM 80.1°F26.7°C 50.8°F10.4°C 36% Calm Calm -- 29.91 in1012.9 mb - 0.00 in0.0 mm 0.01 in0.3 mm
08:00 PM 79.5°F26.4°C 53.7°F12.1°C 41% Calm Calm -- 29.91 in1012.9 mb - 0.00 in0.0 mm 0.01 in0.3 mm
08:10 PM 78.6°F25.9°C 54.2°F12.3°C 43% Calm Calm -- 29.90 in1012.5 mb - 0.00 in0.0 mm 0.01 in0.3 mm
08:20 PM 77.6°F25.3°C 56.4°F13.6°C 48% Calm Calm -- 29.90 in1012.5 mb - 0.00 in0.0 mm 0.01 in0.3 mm
08:30 PM 76.5°F24.7°C 55.3°F12.9°C 48% Calm Calm -- 29.90 in1012.5 mb - 0.00 in0.0 mm 0.01 in0.3 mm
08:40 PM 75.4°F24.1°C 56.0°F13.3°C 51% Calm Calm -- 29.90 in1012.5 mb - 0.00 in0.0 mm 0.01 in0.3 mm
08:50 PM 74.2°F23.4°C 56.4°F13.6°C 54% Calm Calm -- 29.91 in1012.9 mb - 0.00 in0.0 mm 0.01 in0.3 mm
09:00 PM 72.9°F22.7°C 55.8°F13.2°C 55% Calm Calm -- 29.91 in1012.9 mb - 0.00 in0.0 mm 0.01 in0.3 mm
09:10 PM 71.9°F22.2°C 56.3°F13.5°C 58% Calm Calm -- 29.91 in1012.9 mb - 0.00 in0.0 mm 0.01 in0.3 mm
09:20 PM 71.1°F21.7°C 56.0°F13.3°C 59% Calm Calm -- 29.91 in1012.9 mb - 0.00 in0.0 mm 0.01 in0.3 mm
09:30 PM 70.5°F21.4°C 55.9°F13.3°C 60% Calm Calm -- 29.91 in1012.9 mb - 0.00 in0.0 mm 0.01 in0.3 mm
09:40 PM 69.9°F21.1°C 55.8°F13.2°C 61% Calm Calm -- 29.91 in1012.9 mb - 0.00 in0.0 mm 0.01 in0.3 mm
09:50 PM 69.4°F20.8°C 56.7°F13.7°C 64% Calm Calm -- 29.92 in1013.2 mb - 0.00 in0.0 mm 0.01 in0.3 mm
10:00 PM 68.7°F20.4°C 56.1°F13.4°C 64% Calm Calm -- 29.93 in1013.5 mb - 0.00 in0.0 mm 0.01 in0.3 mm
10:10 PM 68.1°F20.1°C 55.5°F13.1°C 64% Calm Calm -- 29.92 in1013.2 mb - 0.00 in0.0 mm 0.01 in0.3 mm
10:20 PM 67.8°F19.9°C 55.6°F13.1°C 65% Calm Calm -- 29.93 in1013.5 mb - 0.00 in0.0 mm 0.01 in0.3 mm
10:30 PM 67.4°F19.7°C 55.6°F13.1°C 66% Calm Calm -- 29.94 in1013.9 mb - 0.00 in0.0 mm 0.01 in0.3 mm
10:40 PM 66.9°F19.4°C 55.6°F13.1°C 67% Calm Calm -- 29.95 in1014.2 mb - 0.00 in0.0 mm 0.01 in0.3 mm
10:50 PM 66.4°F19.1°C 55.5°F13.1°C 68% Calm Calm -- 29.95 in1014.2 mb - 0.00 in0.0 mm 0.01 in0.3 mm
11:00 PM 66.3°F19.1°C 56.2°F13.4°C 70% Calm Calm -- 29.95 in1014.2 mb - 0.00 in0.0 mm 0.01 in0.3 mm
11:10 PM 66.1°F18.9°C 56.5°F13.6°C 71% Calm Calm -- 29.96 in1014.6 mb - 0.00 in0.0 mm 0.01 in0.3 mm
11:20 PM 65.8°F18.8°C 56.2°F13.4°C 71% Calm Calm -- 29.96 in1014.6 mb - 0.00 in0.0 mm 0.01 in0.3 mm
11:30 PM 65.6°F18.7°C 56.3°F13.5°C 72% Calm Calm -- 29.96 in1014.6 mb - 0.00 in0.0 mm 0.01 in0.3 mm
11:40 PM 65.1°F18.4°C 55.9°F13.3°C 72% Calm Calm -- 29.97 in1014.9 mb - 0.00 in0.0 mm 0.01 in0.3 mm
11:50 PM 64.9°F18.3°C 55.7°F13.2°C 72% Calm Calm -- 29.97 in1014.9 mb - 0.00 in0.0 mm 0.01 in0.3 mm